createdAt,value
2017-01-10T00:00:47.621Z,16.51
2017-01-10T00:01:47.558Z,16.61
2017-01-10T00:02:47.507Z,16.12
2017-01-10T00:03:47.433Z,16.61
2017-01-10T00:04:47.373Z,16.61
2017-01-10T00:05:47.315Z,16.51
2017-01-10T00:06:47.250Z,16.61
2017-01-10T00:07:47.187Z,16.61
2017-01-10T00:08:47.124Z,16.51
2017-01-10T00:09:47.061Z,16.51
2017-01-10T00:10:47.000Z,16.61
2017-01-10T00:11:46.938Z,16.51
2017-01-10T00:12:46.877Z,16.51
2017-01-10T00:13:46.814Z,16.61
2017-01-10T00:14:46.750Z,16.61
2017-01-10T00:15:46.689Z,16.41
2017-01-10T00:16:46.630Z,16.12
2017-01-10T00:17:46.565Z,16.03
2017-01-10T00:18:46.530Z,16.51
2017-01-10T00:19:46.442Z,16.61
2017-01-10T00:20:46.379Z,16.12
2017-01-10T00:21:46.316Z,16.12
2017-01-10T00:22:46.255Z,16.41
2017-01-10T00:23:46.194Z,16.03
2017-01-10T00:24:46.132Z,16.61
2017-01-10T00:25:46.075Z,16.12
2017-01-10T00:26:46.007Z,16.12
2017-01-10T00:27:45.945Z,16.51
2017-01-10T00:28:45.885Z,16.51
2017-01-10T00:29:45.818Z,16.41
2017-01-10T00:30:45.758Z,16.03
2017-01-10T00:31:45.699Z,16.51
2017-01-10T00:32:45.635Z,16.41
2017-01-10T00:33:45.571Z,16.41
2017-01-10T00:34:45.512Z,16.03
2017-01-10T00:35:45.448Z,16.03
2017-01-10T00:36:45.384Z,16.03
2017-01-10T00:37:45.324Z,16.22
2017-01-10T00:38:45.261Z,16.12
2017-01-10T00:39:45.203Z,16.41
2017-01-10T00:40:45.136Z,16.12
2017-01-10T00:41:45.077Z,16.51
2017-01-10T00:42:45.013Z,16.51
2017-01-10T00:43:44.952Z,16.12
2017-01-10T00:44:44.888Z,16.61
2017-01-10T00:45:44.841Z,16.51
2017-01-10T00:46:44.776Z,16.12
2017-01-10T00:47:44.705Z,16.41
2017-01-10T00:48:44.642Z,16.12
2017-01-10T00:49:44.585Z,16.41
2017-01-10T00:50:44.519Z,16.61
2017-01-10T00:51:44.457Z,16.41
2017-01-10T00:52:44.786Z,16.51
2017-01-10T00:53:44.332Z,16.41
2017-01-10T00:54:44.301Z,16.41
2017-01-10T00:55:44.210Z,16.51
2017-01-10T00:56:44.146Z,16.61
2017-01-10T00:57:44.086Z,16.61
2017-01-10T00:58:44.021Z,16.61
2017-01-10T00:59:43.966Z,16.51
2017-01-10T01:01:12.663Z,16.51
2017-01-10T01:02:12.599Z,16.51
2017-01-10T01:03:12.541Z,16.51
2017-01-10T01:04:12.472Z,16.41
2017-01-10T01:05:12.414Z,16.51
2017-01-10T01:06:12.350Z,16.51
2017-01-10T01:07:12.290Z,16.61
2017-01-10T01:08:12.227Z,16.51
2017-01-10T01:09:12.165Z,16.41
2017-01-10T01:10:12.116Z,16.51
2017-01-10T01:11:12.041Z,16.51
2017-01-10T01:12:11.979Z,16.51
2017-01-10T01:13:11.916Z,16.51
2017-01-10T01:14:11.863Z,16.51
2017-01-10T01:15:11.796Z,16.61
2017-01-10T01:16:11.731Z,16.61
2017-01-10T01:17:11.669Z,16.61
2017-01-10T01:18:11.615Z,16.51
2017-01-10T01:19:11.561Z,16.61
2017-01-10T01:20:11.484Z,16.51
2017-01-10T01:21:11.427Z,16.61
2017-01-10T01:22:11.359Z,16.61
2017-01-10T01:23:11.296Z,16.51
2017-01-10T01:24:11.236Z,16.51
2017-01-10T01:25:11.175Z,16.61
2017-01-10T01:26:11.113Z,16.61
2017-01-10T01:27:11.052Z,16.51
2017-01-10T01:28:10.988Z,16.61
2017-01-10T01:29:10.925Z,16.61
2017-01-10T01:30:10.865Z,16.51
2017-01-10T01:31:10.802Z,16.61
2017-01-10T01:32:10.742Z,16.61
2017-01-10T01:33:10.677Z,16.51
2017-01-10T01:34:10.617Z,16.61
2017-01-10T01:35:10.555Z,16.61
2017-01-10T01:36:10.496Z,16.61
2017-01-10T01:37:10.820Z,16.61
2017-01-10T01:38:10.369Z,16.51
2017-01-10T01:39:10.309Z,16.51
2017-01-10T01:40:10.247Z,16.61
2017-01-10T01:41:10.182Z,16.61
2017-01-10T01:42:10.515Z,16.61
2017-01-10T01:43:10.061Z,16.8
2017-01-10T01:44:09.997Z,16.8
2017-01-10T01:45:09.934Z,16.61
2017-01-10T01:46:09.875Z,16.61
2017-01-10T01:47:09.810Z,16.51
2017-01-10T01:48:09.752Z,16.61
2017-01-10T01:49:10.084Z,16.61
2017-01-10T01:50:09.639Z,16.51
2017-01-10T01:51:09.564Z,16.51
2017-01-10T01:52:09.502Z,16.61
2017-01-10T01:53:09.443Z,16.61
2017-01-10T01:54:09.380Z,16.61
2017-01-10T01:55:09.317Z,16.51
2017-01-10T01:56:09.258Z,16.61
2017-01-10T01:57:09.194Z,16.61
2017-01-10T01:58:09.133Z,16.89
2017-01-10T01:59:09.069Z,16.61
2017-01-10T02:00:09.008Z,16.61
2017-01-10T02:01:08.948Z,16.61
2017-01-10T02:02:08.884Z,16.89
2017-01-10T02:03:08.823Z,16.61
2017-01-10T02:04:08.760Z,16.89
2017-01-10T02:05:08.698Z,16.51
2017-01-10T02:06:08.635Z,16.89
2017-01-10T02:07:08.575Z,16.61
2017-01-10T02:08:08.514Z,16.61
2017-01-10T02:09:08.452Z,16.61
2017-01-10T02:10:08.387Z,16.51
2017-01-10T02:11:08.325Z,16.51
2017-01-10T02:12:08.267Z,16.61
2017-01-10T02:13:08.205Z,16.61
2017-01-10T02:14:08.142Z,16.51
2017-01-10T02:15:08.079Z,16.61
2017-01-10T02:16:08.021Z,16.61
2017-01-10T02:17:07.956Z,16.7
2017-01-10T02:18:07.896Z,16.61
2017-01-10T02:19:07.835Z,16.61
2017-01-10T02:20:07.770Z,16.89
2017-01-10T02:21:07.710Z,16.89
2017-01-10T02:22:07.649Z,16.89
2017-01-10T02:23:07.587Z,16.61
2017-01-10T02:24:07.526Z,16.61
2017-01-10T02:25:07.462Z,16.7
2017-01-10T02:26:07.404Z,16.89
2017-01-10T02:27:07.338Z,16.51
2017-01-10T02:28:07.280Z,16.89
2017-01-10T02:29:07.216Z,16.89
2017-01-10T02:30:07.157Z,16.61
2017-01-10T02:31:07.093Z,16.61
2017-01-10T02:32:07.031Z,16.7
2017-01-10T02:33:06.968Z,16.8
2017-01-10T02:34:06.906Z,16.7
2017-01-10T02:35:06.844Z,16.89
2017-01-10T02:36:06.783Z,16.7
2017-01-10T02:37:06.726Z,16.8
2017-01-10T02:38:06.661Z,16.7
2017-01-10T02:39:06.601Z,16.7
2017-01-10T02:40:06.538Z,16.99
2017-01-10T02:41:06.475Z,16.7
2017-01-10T02:42:06.418Z,16.8
2017-01-10T02:43:06.350Z,16.8
2017-01-10T02:44:06.290Z,16.89
2017-01-10T02:45:06.228Z,16.61
2017-01-10T02:46:06.165Z,16.61
2017-01-10T02:47:06.105Z,16.89
2017-01-10T02:48:06.041Z,16.61
2017-01-10T02:49:05.979Z,16.51
2017-01-10T02:50:05.917Z,16.89
2017-01-10T02:51:05.858Z,16.61
2017-01-10T02:52:05.796Z,16.61
2017-01-10T02:53:05.736Z,16.51
2017-01-10T02:54:05.670Z,16.51
2017-01-10T02:55:05.610Z,16.51
2017-01-10T02:56:05.549Z,16.51
2017-01-10T02:57:05.485Z,16.03
2017-01-10T02:58:05.424Z,16.12
2017-01-10T02:59:05.374Z,16.03
2017-01-10T03:00:05.311Z,16.22
2017-01-10T03:01:05.241Z,16.23
2017-01-10T03:02:05.176Z,16.12
2017-01-10T03:03:05.118Z,16.22
2017-01-10T03:04:05.053Z,16.41
2017-01-10T03:05:04.996Z,16.31
2017-01-10T03:06:04.927Z,16.31
2017-01-10T03:07:04.892Z,16.31
2017-01-10T03:08:04.815Z,16.31
2017-01-10T03:09:04.744Z,16.22
2017-01-10T03:10:04.681Z,16.22
2017-01-10T03:11:04.626Z,16.31
2017-01-10T03:12:04.558Z,16.31
2017-01-10T03:13:04.496Z,16.32
2017-01-10T03:14:04.433Z,16.12
2017-01-10T03:15:04.373Z,16.31
2017-01-10T03:16:04.310Z,16.51
2017-01-10T03:17:04.247Z,16.41
2017-01-10T03:18:04.184Z,16.41
2017-01-10T03:19:04.127Z,16.31
2017-01-10T03:20:04.069Z,16.22
2017-01-10T03:21:04.009Z,16.22
2017-01-10T03:22:03.939Z,16.22
2017-01-10T03:23:03.877Z,16.22
2017-01-10T03:24:03.814Z,16.31
2017-01-10T03:25:03.764Z,16.7
2017-01-10T03:26:03.690Z,16.31
2017-01-10T03:27:03.630Z,16.61
2017-01-10T03:28:03.567Z,16.31
2017-01-10T03:29:03.505Z,16.31
2017-01-10T03:30:03.445Z,16.51
2017-01-10T03:31:03.380Z,16.51
2017-01-10T03:32:03.317Z,16.22
2017-01-10T03:33:03.259Z,16.31
2017-01-10T03:34:03.194Z,16.22
2017-01-10T03:35:03.138Z,16.22
2017-01-10T03:36:03.072Z,16.51
2017-01-10T03:37:03.012Z,16.61
2017-01-10T03:38:02.976Z,16.61
2017-01-10T03:39:02.885Z,16.22
2017-01-10T03:40:02.825Z,16.31
2017-01-10T03:41:02.766Z,16.51
2017-01-10T03:42:03.095Z,16.31
2017-01-10T03:43:02.642Z,16.51
2017-01-10T03:44:02.584Z,16.61
2017-01-10T03:45:02.514Z,16.22
2017-01-10T03:46:02.453Z,16.51
2017-01-10T03:47:02.390Z,16.31
2017-01-10T03:48:02.331Z,16.22
2017-01-10T03:49:02.265Z,16.51
2017-01-10T03:50:02.206Z,16.51
2017-01-10T03:51:02.144Z,16.31
2017-01-10T03:52:02.083Z,16.41
2017-01-10T03:53:02.030Z,16.61
2017-01-10T03:54:01.959Z,16.22
2017-01-10T03:55:01.894Z,16.51
2017-01-10T03:56:01.835Z,16.31
2017-01-10T03:57:01.774Z,16.41
2017-01-10T03:58:01.711Z,16.31
2017-01-10T03:59:01.648Z,16.41
2017-01-10T04:00:01.585Z,16.31
2017-01-10T04:01:01.523Z,16.31
2017-01-10T04:02:01.462Z,16.51
2017-01-10T04:03:01.400Z,16.61
2017-01-10T04:04:01.339Z,16.7
2017-01-10T04:05:01.275Z,16.7
2017-01-10T04:06:01.214Z,16.61
2017-01-10T04:07:01.154Z,16.61
2017-01-10T04:08:01.089Z,16.31
2017-01-10T04:09:01.030Z,16.61
2017-01-10T04:10:00.965Z,16.61
2017-01-10T04:11:00.903Z,16.41
2017-01-10T04:12:00.841Z,16.61
2017-01-10T04:13:00.781Z,16.22
2017-01-10T04:14:00.713Z,16.31
2017-01-10T04:15:00.656Z,16.51
2017-01-10T04:16:00.591Z,16.22
2017-01-10T04:17:00.531Z,16.61
2017-01-10T04:18:00.468Z,16.41
2017-01-10T04:19:00.408Z,16.41
2017-01-10T04:20:00.345Z,16.61
2017-01-10T04:21:00.283Z,16.31
2017-01-10T04:22:00.220Z,16.51
2017-01-10T04:23:00.163Z,16.31
2017-01-10T04:24:00.096Z,16.41
2017-01-10T04:25:00.032Z,16.61
2017-01-10T04:25:59.975Z,16.22
2017-01-10T04:26:59.910Z,16.61
2017-01-10T04:27:59.850Z,16.22
2017-01-10T04:28:59.786Z,16.51
2017-01-10T04:29:59.725Z,16.61
2017-01-10T04:30:59.662Z,16.61
2017-01-10T04:31:59.599Z,16.61
2017-01-10T04:32:59.537Z,16.22
2017-01-10T04:33:59.474Z,16.61
2017-01-10T04:34:59.414Z,16.61
2017-01-10T04:35:59.353Z,16.61
2017-01-10T04:36:59.287Z,16.61
2017-01-10T04:37:59.229Z,16.22
2017-01-10T04:38:59.166Z,16.31
2017-01-10T04:39:59.103Z,16.51
2017-01-10T04:40:59.044Z,16.22
2017-01-10T04:41:58.978Z,16.51
2017-01-10T04:42:58.919Z,16.51
2017-01-10T04:43:58.855Z,16.61
2017-01-10T04:44:58.796Z,16.51
2017-01-10T04:45:58.733Z,16.61
2017-01-10T04:46:58.671Z,16.61
2017-01-10T04:47:58.608Z,16.61
2017-01-10T04:48:58.546Z,16.51
2017-01-10T04:49:58.487Z,16.51
2017-01-10T04:50:58.420Z,16.41
2017-01-10T04:51:58.360Z,16.61
2017-01-10T04:52:58.298Z,16.22
2017-01-10T04:53:58.237Z,16.22
2017-01-10T04:54:58.175Z,16.31
2017-01-10T04:55:58.110Z,16.61
2017-01-10T04:56:58.052Z,16.51
2017-01-10T04:57:57.989Z,16.31
2017-01-10T04:58:57.926Z,16.51
2017-01-10T04:59:57.867Z,16.61
2017-01-10T05:00:57.804Z,16.41
2017-01-10T05:01:57.738Z,16.51
2017-01-10T05:02:57.684Z,16.31
2017-01-10T05:03:57.615Z,16.31
2017-01-10T05:04:57.560Z,16.51
2017-01-10T05:05:57.490Z,16.51
2017-01-10T05:06:57.427Z,16.41
2017-01-10T05:07:57.367Z,16.51
2017-01-10T05:08:57.304Z,16.61
2017-01-10T05:09:57.243Z,16.61
2017-01-10T05:10:57.182Z,16.61
2017-01-10T05:11:57.120Z,16.31
2017-01-10T05:12:57.056Z,16.51
2017-01-10T05:13:56.994Z,16.61
2017-01-10T05:14:56.932Z,16.61
2017-01-10T05:15:56.871Z,16.51
2017-01-10T05:16:56.807Z,16.22
2017-01-10T05:17:56.748Z,16.22
2017-01-10T05:18:56.687Z,16.41
2017-01-10T05:19:56.623Z,16.51
2017-01-10T05:20:56.560Z,16.41
2017-01-10T05:21:56.498Z,15.83
2017-01-10T05:22:56.437Z,16.03
2017-01-10T05:23:56.374Z,15.83
2017-01-10T05:24:56.312Z,16.03
2017-01-10T05:25:56.248Z,16.22
2017-01-10T05:26:56.186Z,16.03
2017-01-10T05:27:56.124Z,16.22
2017-01-10T05:28:56.065Z,16.12
2017-01-10T05:29:56.001Z,16.12
2017-01-10T05:30:55.940Z,16.03
2017-01-10T05:31:55.880Z,16.12
2017-01-10T05:32:55.814Z,16.22
2017-01-10T05:33:55.754Z,15.93
2017-01-10T05:34:55.690Z,16.03
2017-01-10T05:35:55.627Z,15.83
2017-01-10T05:36:55.569Z,15.64
2017-01-10T05:37:55.503Z,15.93
2017-01-10T05:38:55.832Z,15.73
2017-01-10T05:39:55.379Z,15.93
2017-01-10T05:40:55.328Z,15.45
2017-01-10T05:41:55.258Z,15.73
2017-01-10T05:42:55.193Z,15.73
2017-01-10T05:43:55.132Z,15.83
2017-01-10T05:44:55.069Z,15.64
2017-01-10T05:45:55.009Z,15.64
2017-01-10T05:46:54.945Z,15.45
2017-01-10T05:47:54.887Z,15.64
2017-01-10T05:48:54.822Z,15.55
2017-01-10T05:49:54.760Z,15.64
2017-01-10T05:50:54.704Z,15.25
2017-01-10T05:51:54.645Z,15.35
2017-01-10T05:52:54.585Z,14.77
2017-01-10T05:53:54.520Z,15.35
2017-01-10T05:54:54.461Z,15.06
2017-01-10T05:55:54.396Z,14.97
2017-01-10T05:56:54.345Z,15.16
2017-01-10T05:57:54.272Z,15.06
2017-01-10T05:58:54.208Z,14.58
2017-01-10T05:59:54.137Z,14.39
2017-01-10T06:00:54.083Z,14.58
2017-01-10T06:01:54.024Z,14.58
2017-01-10T06:02:53.962Z,14.77
2017-01-10T06:03:53.885Z,14.39
2017-01-10T06:04:53.828Z,14.58
2017-01-10T06:05:53.764Z,14.58
2017-01-10T06:06:53.700Z,14.58
2017-01-10T06:07:53.639Z,14.39
2017-01-10T06:08:53.579Z,14.77
2017-01-10T06:09:53.519Z,14.48
2017-01-10T06:10:53.454Z,14.67
2017-01-10T06:11:53.393Z,14.29
2017-01-10T06:12:53.331Z,14.39
2017-01-10T06:13:53.269Z,14.39
2017-01-10T06:14:53.206Z,14.29
2017-01-10T06:15:53.146Z,14.67
2017-01-10T06:16:53.083Z,14.29
2017-01-10T06:17:53.022Z,14.39
2017-01-10T06:18:52.958Z,14.48
2017-01-10T06:19:52.899Z,14.39
2017-01-10T06:20:52.834Z,14
2017-01-10T06:21:52.774Z,14
2017-01-10T06:22:52.717Z,14.09
2017-01-10T06:23:52.651Z,13.9
2017-01-10T06:24:52.587Z,14.09
2017-01-10T06:25:52.527Z,13.71
2017-01-10T06:26:52.863Z,13.81
2017-01-10T06:27:52.406Z,13.9
2017-01-10T06:28:52.341Z,13.71
2017-01-10T06:29:52.297Z,13.51
2017-01-10T06:30:52.215Z,13.71
2017-01-10T06:31:52.156Z,13.71
2017-01-10T06:32:52.094Z,14
2017-01-10T06:33:52.032Z,14
2017-01-10T06:34:51.972Z,13.51
2017-01-10T06:35:51.917Z,13.9
2017-01-10T06:36:51.848Z,13.61
2017-01-10T06:37:51.785Z,13.51
2017-01-10T06:38:51.725Z,13.81
2017-01-10T06:39:51.669Z,13.71
2017-01-10T06:40:51.599Z,13.61
2017-01-10T06:41:51.548Z,13.61
2017-01-10T06:42:51.478Z,13.71
2017-01-10T06:43:51.423Z,13.81
2017-01-10T06:44:51.354Z,13.81
2017-01-10T06:45:51.291Z,13.71
2017-01-10T06:46:51.230Z,13.71
2017-01-10T06:47:51.165Z,13.71
2017-01-10T06:48:51.107Z,13.51
2017-01-10T06:49:51.045Z,13.51
2017-01-10T06:50:50.983Z,13.23
2017-01-10T06:51:50.922Z,13.42
2017-01-10T06:52:50.858Z,13.42
2017-01-10T06:53:50.796Z,13.32
2017-01-10T06:54:50.737Z,13.03
2017-01-10T06:55:50.673Z,13.23
2017-01-10T06:56:50.609Z,13.13
2017-01-10T06:57:50.550Z,13.23
2017-01-10T06:58:50.487Z,13.23
2017-01-10T06:59:50.428Z,13.23
2017-01-10T07:00:50.592Z,13.51
2017-01-10T07:01:50.303Z,13.23
2017-01-10T07:02:50.241Z,13.51
2017-01-10T07:03:50.183Z,13.51
2017-01-10T07:04:50.118Z,13.42
2017-01-10T07:05:50.054Z,13.71
2017-01-10T07:06:49.997Z,13.81
2017-01-10T07:07:49.933Z,13.61
2017-01-10T07:08:49.871Z,13.61
2017-01-10T07:09:49.810Z,13.61
2017-01-10T07:10:49.747Z,13.51
2017-01-10T07:11:49.697Z,13.61
2017-01-10T07:12:49.624Z,13.52
2017-01-10T07:13:49.562Z,13.81
2017-01-10T07:14:49.501Z,13.71
2017-01-10T07:15:49.440Z,13.71
2017-01-10T07:16:49.375Z,13.71
2017-01-10T07:17:49.314Z,13.71
2017-01-10T07:18:49.254Z,13.42
2017-01-10T07:19:49.191Z,13.33
2017-01-10T07:20:49.132Z,13.42
2017-01-10T07:21:49.066Z,13.52
2017-01-10T07:22:49.003Z,13.61
2017-01-10T07:23:48.942Z,13.51
2017-01-10T07:24:48.881Z,13.23
2017-01-10T07:25:48.819Z,13.32
2017-01-10T07:26:48.758Z,13.23
2017-01-10T07:27:48.698Z,13.13
2017-01-10T07:28:48.635Z,13.04
2017-01-10T07:29:48.574Z,13.13
2017-01-10T07:30:48.510Z,13.13
2017-01-10T07:31:48.449Z,13.04
2017-01-10T07:32:48.388Z,13.04
2017-01-10T07:33:48.325Z,13.13
2017-01-10T07:34:48.263Z,13.13
2017-01-10T07:35:48.210Z,13.04
2017-01-10T07:36:48.140Z,13.03
2017-01-10T07:37:48.078Z,13.23
2017-01-10T07:38:48.014Z,13.03
2017-01-10T07:39:47.953Z,12.94
2017-01-10T07:40:47.892Z,12.55
2017-01-10T07:41:47.831Z,12.93
2017-01-10T07:42:47.771Z,12.85
2017-01-10T07:43:47.705Z,12.65
2017-01-10T07:44:47.653Z,12.84
2017-01-10T07:45:47.584Z,13.13
2017-01-10T07:46:47.530Z,12.93
2017-01-10T07:47:47.459Z,12.93
2017-01-10T07:48:47.398Z,12.74
2017-01-10T07:49:47.334Z,12.84
2017-01-10T07:50:47.273Z,12.74
2017-01-10T07:51:47.212Z,12.74
2017-01-10T07:52:47.150Z,12.36
2017-01-10T07:53:47.479Z,12.55
2017-01-10T07:54:47.023Z,12.55
2017-01-10T07:55:46.967Z,12.84
2017-01-10T07:56:46.905Z,12.65
2017-01-10T07:57:46.840Z,12.65
2017-01-10T07:58:46.778Z,12.65
2017-01-10T07:59:46.716Z,12.55
2017-01-10T08:00:46.655Z,12.65
2017-01-10T08:01:46.592Z,12.36
2017-01-10T08:02:46.532Z,12.74
2017-01-10T08:03:46.468Z,12.55
2017-01-10T08:04:46.406Z,12.65
2017-01-10T08:05:46.349Z,12.55
2017-01-10T08:06:46.283Z,12.55
2017-01-10T08:07:46.220Z,12.55
2017-01-10T08:08:46.159Z,12.65
2017-01-10T08:09:46.100Z,12.84
2017-01-10T08:10:46.035Z,12.55
2017-01-10T08:11:45.971Z,12.65
2017-01-10T08:12:45.916Z,12.65
2017-01-10T08:13:45.847Z,12.65
2017-01-10T08:14:45.785Z,12.36
2017-01-10T08:15:45.721Z,12.36
2017-01-10T08:16:45.662Z,12.45
2017-01-10T08:17:45.600Z,12.26
2017-01-10T08:18:45.535Z,12.45
2017-01-10T08:19:45.476Z,12.45
2017-01-10T08:20:45.413Z,12.16
2017-01-10T08:21:45.352Z,12.26
2017-01-10T08:22:45.287Z,12.26
2017-01-10T08:23:45.227Z,11.87
2017-01-10T08:24:45.164Z,11.87
2017-01-10T08:25:45.101Z,12.26
2017-01-10T08:26:45.043Z,12.26
2017-01-10T08:27:44.984Z,12.07
2017-01-10T08:28:44.915Z,11.87
2017-01-10T08:29:44.852Z,11.87
2017-01-10T08:30:44.792Z,11.97
2017-01-10T08:31:44.729Z,11.97
2017-01-10T08:32:44.669Z,11.97
2017-01-10T08:33:44.605Z,12.07
2017-01-10T08:34:44.542Z,11.87
2017-01-10T08:35:44.482Z,12.36
2017-01-10T08:36:44.417Z,12.26
2017-01-10T08:37:44.356Z,11.97
2017-01-10T08:38:44.297Z,12.36
2017-01-10T08:39:44.232Z,12.55
2017-01-10T08:40:44.170Z,12.65
2017-01-10T08:41:44.113Z,12.65
2017-01-10T08:42:44.046Z,12.55
2017-01-10T08:43:43.984Z,12.74
2017-01-10T08:44:43.921Z,12.84
2017-01-10T08:45:43.860Z,12.93
2017-01-10T08:46:43.799Z,13.23
2017-01-10T08:47:43.734Z,13.23
2017-01-10T08:48:43.819Z,13.03
2017-01-10T08:49:43.947Z,13.13
2017-01-10T08:50:43.644Z,13.51
2017-01-10T08:51:43.486Z,13.61
2017-01-10T08:52:43.423Z,13.71
2017-01-10T08:53:43.362Z,13.51
2017-01-10T08:54:43.301Z,13.81
2017-01-10T08:55:43.237Z,13.81
2017-01-10T08:56:43.176Z,13.9
2017-01-10T08:57:43.114Z,14.19
2017-01-10T08:58:43.052Z,14.48
2017-01-10T08:59:42.991Z,14.48
2017-01-10T09:00:42.929Z,14.29
2017-01-10T09:01:42.867Z,14.58
2017-01-10T09:02:42.811Z,14.39
2017-01-10T09:03:42.744Z,14.39
2017-01-10T09:04:42.681Z,14.58
2017-01-10T09:05:42.618Z,14.67
2017-01-10T09:06:42.555Z,14.58
2017-01-10T09:07:42.494Z,14.77
2017-01-10T09:08:42.824Z,15.06
2017-01-10T09:09:42.368Z,14.97
2017-01-10T09:10:42.334Z,15.16
2017-01-10T09:11:42.638Z,15.06
2017-01-10T09:12:42.188Z,15.06
2017-01-10T09:13:42.122Z,14.87
2017-01-10T09:14:42.061Z,15.06
2017-01-10T09:15:41.999Z,15.55
2017-01-10T09:16:41.936Z,15.35
2017-01-10T09:17:41.876Z,15.55
2017-01-10T09:18:41.812Z,15.16
2017-01-10T09:19:41.754Z,15.06
2017-01-10T09:20:41.689Z,14.77
2017-01-10T09:21:41.626Z,14.87
2017-01-10T09:22:41.565Z,15.06
2017-01-10T09:23:41.506Z,14.87
2017-01-10T09:24:41.440Z,15.35
2017-01-10T09:25:41.485Z,14.97
2017-01-10T09:26:41.321Z,15.35
2017-01-10T09:27:41.255Z,15.06
2017-01-10T09:28:41.194Z,15.06
2017-01-10T09:29:41.133Z,15.16
2017-01-10T09:30:41.095Z,14.87
2017-01-10T09:31:41.404Z,14.58
2017-01-10T09:32:40.945Z,14.67
2017-01-10T09:33:40.884Z,14.48
2017-01-10T09:34:40.823Z,14.48
2017-01-10T09:35:40.760Z,14.58
2017-01-10T09:36:40.697Z,14.29
2017-01-10T09:37:40.635Z,14.67
2017-01-10T09:38:40.574Z,14.58
2017-01-10T09:39:40.510Z,14.09
2017-01-10T09:40:40.451Z,14.19
2017-01-10T09:41:40.387Z,13.9
2017-01-10T09:42:40.326Z,13.81
2017-01-10T09:43:40.276Z,13.81
2017-01-10T09:44:40.205Z,13.9
2017-01-10T09:45:40.228Z,13.9
2017-01-10T09:46:40.079Z,13.71
2017-01-10T09:47:40.017Z,13.9
2017-01-10T09:48:39.952Z,13.81
2017-01-10T09:49:39.890Z,13.51
2017-01-10T09:50:39.986Z,13.71
2017-01-10T09:51:39.769Z,13.42
2017-01-10T09:52:39.705Z,13.32
2017-01-10T09:53:39.642Z,13.32
2017-01-10T09:54:39.581Z,13.23
2017-01-10T09:55:39.521Z,13.23
2017-01-10T09:56:39.458Z,13.23
2017-01-10T09:57:39.392Z,12.93
2017-01-10T09:58:39.332Z,13.13
2017-01-10T09:59:39.271Z,13.42
2017-01-10T10:00:39.206Z,13.23
2017-01-10T10:01:39.153Z,13.23
2017-01-10T10:02:39.083Z,13.13
2017-01-10T10:03:39.046Z,13.13
2017-01-10T10:04:38.958Z,13.03
2017-01-10T10:05:38.895Z,13.13
2017-01-10T10:06:38.861Z,12.93
2017-01-10T10:07:38.773Z,13.13
2017-01-10T10:08:38.736Z,13.23
2017-01-10T10:09:38.648Z,13.51
2017-01-10T10:10:38.585Z,13.51
2017-01-10T10:11:38.523Z,13.71
2017-01-10T10:12:38.460Z,13.61
2017-01-10T10:13:38.398Z,13.51
2017-01-10T10:14:38.336Z,13.9
2017-01-10T10:15:38.274Z,13.9
2017-01-10T10:16:38.211Z,13.9
2017-01-10T10:17:38.151Z,14.09
2017-01-10T10:18:38.085Z,14.39
2017-01-10T10:19:38.026Z,14.39
2017-01-10T10:20:37.964Z,14.39
2017-01-10T10:21:37.900Z,14.67
2017-01-10T10:22:37.837Z,14.39
2017-01-10T10:23:37.779Z,14.67
2017-01-10T10:24:37.713Z,14.77
2017-01-10T10:25:37.684Z,14.39
2017-01-10T10:26:37.588Z,14.97
2017-01-10T10:27:37.528Z,15.35
2017-01-10T10:28:37.469Z,15.25
2017-01-10T10:29:37.403Z,15.45
2017-01-10T10:30:37.342Z,15.83
2017-01-10T10:31:37.282Z,15.83
2017-01-10T10:32:37.215Z,16.03
2017-01-10T10:33:37.159Z,16.03
2017-01-10T10:34:37.093Z,16.03
2017-01-10T10:35:37.028Z,16.7
2017-01-10T10:36:36.968Z,16.12
2017-01-10T10:37:36.906Z,16.12
2017-01-10T10:38:36.845Z,16.61
2017-01-10T10:39:36.782Z,16.61
2017-01-10T10:40:36.718Z,16.99
2017-01-10T10:41:36.660Z,16.99
2017-01-10T10:42:36.594Z,16.99
2017-01-10T10:43:36.533Z,16.89
2017-01-10T10:44:36.472Z,17.28
2017-01-10T10:45:36.408Z,17.47
2017-01-10T10:46:36.354Z,17.19
2017-01-10T10:47:36.288Z,17.19
2017-01-10T10:48:36.221Z,16.99
2017-01-10T10:49:36.159Z,17.09
2017-01-10T10:50:36.099Z,17.76
2017-01-10T10:51:36.034Z,17.47
2017-01-10T10:52:35.984Z,17.19
2017-01-10T10:53:35.909Z,17.38
2017-01-10T10:54:35.850Z,17.67
2017-01-10T10:55:35.786Z,17.57
2017-01-10T10:56:35.724Z,17.86
2017-01-10T10:57:35.661Z,17.96
2017-01-10T10:58:35.620Z,18.05
2017-01-10T10:59:35.548Z,18.05
2017-01-10T11:00:35.477Z,18.15
2017-01-10T11:01:35.413Z,18.05
2017-01-10T11:02:35.352Z,18.25
2017-01-10T11:03:35.287Z,18.54
2017-01-10T11:04:35.229Z,18.54
2017-01-10T11:05:35.164Z,18.44
2017-01-10T11:06:35.105Z,18.54
2017-01-10T11:07:35.043Z,18.44
2017-01-10T11:08:35.005Z,18.25
2017-01-10T11:09:34.923Z,18.15
2017-01-10T11:11:34.793Z,18.15
2017-01-10T11:12:34.732Z,18.44
2017-01-10T11:13:34.668Z,18.63
2017-01-10T11:14:34.605Z,18.73
2017-01-10T11:15:34.545Z,18.73
2017-01-10T11:16:34.483Z,18.44
2017-01-10T11:17:34.421Z,18.05
2017-01-10T11:18:34.747Z,17.86
2017-01-10T11:19:34.297Z,17.67
2017-01-10T11:20:34.236Z,16.99
2017-01-10T11:21:34.175Z,17.38
2017-01-10T11:22:34.112Z,16.89
2017-01-10T11:23:34.049Z,16.99
2017-01-10T11:24:33.987Z,16.99
2017-01-10T11:25:48.813Z,16.7
2017-01-10T11:26:33.865Z,16.22
2017-01-10T11:27:33.803Z,15.93
2017-01-10T11:28:33.741Z,16.12
2017-01-10T11:29:33.680Z,15.73
2017-01-10T11:30:33.616Z,15.64
2017-01-10T11:31:33.558Z,15.55
2017-01-10T11:32:33.494Z,15.55
2017-01-10T11:33:33.431Z,15.45
2017-01-10T11:34:33.371Z,15.25
2017-01-10T11:35:33.507Z,14.87
2017-01-10T11:36:33.246Z,14.87
2017-01-10T11:37:33.184Z,14.67
2017-01-10T11:38:33.124Z,15.16
2017-01-10T11:39:33.058Z,15.35
2017-01-10T11:40:32.997Z,14.97
2017-01-10T11:41:32.938Z,15.16
2017-01-10T11:42:32.874Z,15.16
2017-01-10T11:43:32.814Z,14.39
2017-01-10T11:44:32.751Z,14.58
2017-01-10T11:45:32.690Z,14.58
2017-01-10T11:46:32.628Z,14.58
2017-01-10T11:47:32.567Z,14.77
2017-01-10T11:48:32.605Z,14.67
2017-01-10T11:49:32.445Z,14.48
2017-01-10T11:50:32.380Z,14.39
2017-01-10T11:51:32.316Z,14.19
2017-01-10T11:52:32.254Z,14.39
2017-01-10T11:53:32.195Z,14.19
2017-01-10T11:54:32.132Z,14.09
2017-01-10T11:55:32.070Z,14
2017-01-10T11:56:32.015Z,13.81
2017-01-10T11:57:31.947Z,13.9
2017-01-10T11:58:31.888Z,14
2017-01-10T11:59:31.825Z,13.81
2017-01-10T12:00:31.760Z,13.61
2017-01-10T12:01:31.698Z,13.81
2017-01-10T12:02:31.635Z,13.71
2017-01-10T12:03:31.593Z,13.42
2017-01-10T12:04:31.512Z,13.51
2017-01-10T12:05:31.462Z,13.51
2017-01-10T12:06:31.394Z,13.61
2017-01-10T12:07:31.330Z,13.13
2017-01-10T12:08:31.266Z,12.84
2017-01-10T12:09:31.204Z,13.13
2017-01-10T12:10:31.243Z,13.03
2017-01-10T12:11:31.080Z,13.03
2017-01-10T12:12:31.018Z,13.03
2017-01-10T12:13:30.954Z,13.13
2017-01-10T12:14:30.895Z,12.93
2017-01-10T12:15:30.832Z,13.32
2017-01-10T12:16:30.772Z,13.23
2017-01-10T12:17:30.710Z,12.84
2017-01-10T12:18:30.647Z,12.65
2017-01-10T12:19:30.583Z,12.84
2017-01-10T12:20:30.823Z,12.93
2017-01-10T12:21:30.465Z,12.84
2017-01-10T12:22:30.398Z,12.55
2017-01-10T12:23:30.340Z,12.45
2017-01-10T12:24:30.275Z,12.55
2017-01-10T12:25:30.214Z,12.65
2017-01-10T12:26:30.151Z,12.65
2017-01-10T12:27:30.090Z,12.65
2017-01-10T12:28:30.029Z,12.55
2017-01-10T12:29:29.965Z,12.74
2017-01-10T12:30:29.903Z,12.74
2017-01-10T12:31:29.849Z,12.55
2017-01-10T12:32:29.777Z,12.55
2017-01-10T12:33:29.718Z,12.45
2017-01-10T12:34:29.653Z,12.36
2017-01-10T12:35:29.595Z,12.45
2017-01-10T12:36:29.529Z,12.36
2017-01-10T12:37:29.468Z,12.36
2017-01-10T12:38:29.408Z,12.26
2017-01-10T12:39:29.347Z,12.55
2017-01-10T12:40:29.286Z,12.36
2017-01-10T12:41:29.221Z,12.26
2017-01-10T12:42:29.159Z,11.87
2017-01-10T12:43:29.103Z,11.78
2017-01-10T12:44:29.037Z,11.97
2017-01-10T12:45:28.972Z,12.16
2017-01-10T12:46:28.910Z,12.07
2017-01-10T12:47:28.852Z,12.26
2017-01-10T12:48:28.784Z,12.16
2017-01-10T12:49:28.724Z,12.07
2017-01-10T12:50:28.662Z,12.26
2017-01-10T12:51:28.602Z,12.45
2017-01-10T12:52:28.537Z,11.78
2017-01-10T12:53:28.476Z,12.26
2017-01-10T12:54:28.414Z,11.68
2017-01-10T12:55:28.367Z,11.68